Time,TemperatureF,DewpointF,PressureIn,WindDirection,WindDirectionDegrees,WindSpeedMPH,WindSpeedGustMPH,Humidity,HourlyPrecipIn,Conditions,Clouds,dailyrainin,SoftwareType,DateUTC
2013-02-06 00:01:00,29.0,11.0,-100.00,WNW,295,2.0,3.0,47,-99.99,,,-99.99,,2013-02-06 07:01:00,
2013-02-06 00:11:00,29.0,11.0,-100.00,WNW,295,2.0,3.0,47,-99.99,,,-99.99,,2013-02-06 07:11:00,
2013-02-06 00:21:00,29.0,11.0,-100.00,NW,305,1.0,2.0,47,-99.99,,,-99.99,,2013-02-06 07:21:00,
2013-02-06 00:32:00,29.0,11.0,-100.00,NW,305,1.0,2.0,47,-99.99,,,-99.99,,2013-02-06 07:32:00,
2013-02-06 00:41:00,29.0,11.0,-100.00,NW,305,1.0,2.0,47,-99.99,,,-99.99,,2013-02-06 07:41:00,
2013-02-06 00:52:00,29.0,12.0,-100.00,WNW,290,1.0,2.0,48,-99.99,,,-99.99,,2013-02-06 07:52:00,
2013-02-06 01:01:00,28.0,11.0,-100.00,NW,315,3.0,4.0,48,-99.99,,,-99.99,,2013-02-06 08:01:00,
2013-02-06 01:11:00,28.0,11.0,-100.00,NW,315,3.0,4.0,48,-99.99,,,-99.99,,2013-02-06 08:11:00,
2013-02-06 01:21:00,28.0,11.0,-100.00,WNW,300,2.0,3.0,48,-99.99,,,-99.99,,2013-02-06 08:21:00,
2013-02-06 01:31:00,28.0,11.0,-100.00,WNW,300,2.0,3.0,48,-99.99,,,-99.99,,2013-02-06 08:31:00,
2013-02-06 01:41:00,28.0,11.0,-100.00,WNW,300,2.0,3.0,48,-99.99,,,-99.99,,2013-02-06 08:41:00,
2013-02-06 01:53:00,29.0,11.0,-100.00,NW,310,1.0,2.0,46,-99.99,,,-99.99,,2013-02-06 08:53:00,
2013-02-06 02:01:00,29.0,11.0,-100.00,SE,145,0.0,0.0,46,-99.99,,,-99.99,,2013-02-06 09:01:00,
2013-02-06 02:11:00,29.0,11.0,-100.00,SE,145,0.0,0.0,46,-99.99,,,-99.99,,2013-02-06 09:11:00,
2013-02-06 02:21:00,28.0,10.0,-100.00,West,270,0.0,1.0,46,-99.99,,,-99.99,,2013-02-06 09:21:00,
2013-02-06 02:31:00,28.0,10.0,-100.00,West,270,0.0,1.0,46,-99.99,,,-99.99,,2013-02-06 09:31:00,
2013-02-06 02:41:00,28.0,10.0,-100.00,West,270,0.0,1.0,46,-99.99,,,-99.99,,2013-02-06 09:41:00,
2013-02-06 02:52:00,26.0,9.0,-100.00,WSW,250,1.0,2.0,49,-99.99,,,-99.99,,2013-02-06 09:52:00,
2013-02-06 03:01:00,26.0,9.0,-100.00,WNW,290,1.0,2.0,49,-99.99,,,-99.99,,2013-02-06 10:01:00,
2013-02-06 03:11:00,26.0,9.0,-100.00,WNW,290,1.0,2.0,49,-99.99,,,-99.99,,2013-02-06 10:11:00,
2013-02-06 03:21:00,26.0,9.0,-100.00,West,280,2.0,3.0,49,-99.99,,,-99.99,,2013-02-06 10:21:00,
2013-02-06 03:31:00,26.0,9.0,-100.00,West,280,2.0,3.0,49,-99.99,,,-99.99,,2013-02-06 10:31:00,
2013-02-06 03:52:00,25.0,10.0,-100.00,WNW,290,2.0,3.0,52,-99.99,,,-99.99,,2013-02-06 10:52:00,
2013-02-06 04:01:00,25.0,10.0,-100.00,NW,305,2.0,3.0,52,-99.99,,,-99.99,,2013-02-06 11:01:00,
2013-02-06 04:11:00,25.0,10.0,-100.00,NW,305,2.0,3.0,52,-99.99,,,-99.99,,2013-02-06 11:11:00,
2013-02-06 04:22:00,25.0,10.0,-100.00,West,280,2.0,5.0,53,-99.99,,,-99.99,,2013-02-06 11:22:00,
2013-02-06 04:32:00,25.0,10.0,-100.00,West,280,2.0,5.0,53,-99.99,,,-99.99,,2013-02-06 11:32:00,
2013-02-06 04:42:00,25.0,10.0,-100.00,West,280,2.0,5.0,53,-99.99,,,-99.99,,2013-02-06 11:42:00,
2013-02-06 04:53:00,25.0,11.0,-100.00,West,275,1.0,2.0,54,-99.99,,,-99.99,,2013-02-06 11:53:00,
2013-02-06 05:01:00,26.0,11.0,-100.00,NW,310,2.0,3.0,53,-99.99,,,-99.99,,2013-02-06 12:01:00,
2013-02-06 05:12:00,26.0,11.0,-100.00,NW,310,2.0,3.0,53,-99.99,,,-99.99,,2013-02-06 12:12:00,
2013-02-06 05:22:00,26.0,11.0,-100.00,NW,315,3.0,4.0,52,-99.99,,,-99.99,,2013-02-06 12:22:00,
2013-02-06 05:32:00,26.0,11.0,-100.00,NW,315,3.0,4.0,52,-99.99,,,-99.99,,2013-02-06 12:32:00,
2013-02-06 05:42:00,26.0,11.0,-100.00,NW,315,3.0,4.0,52,-99.99,,,-99.99,,2013-02-06 12:42:00,
2013-02-06 05:52:00,26.0,11.0,-100.00,WNW,285,1.0,3.0,52,-99.99,,,-99.99,,2013-02-06 12:52:00,
2013-02-06 06:01:00,25.0,10.0,-100.00,NNW,330,2.0,3.0,53,-99.99,,,-99.99,,2013-02-06 13:01:00,
2013-02-06 06:11:00,25.0,10.0,-100.00,NNW,330,2.0,3.0,53,-99.99,,,-99.99,,2013-02-06 13:11:00,
2013-02-06 06:21:00,25.0,10.0,-100.00,West,270,0.0,3.0,53,-99.99,,,-99.99,,2013-02-06 13:21:00,
2013-02-06 06:31:00,25.0,10.0,-100.00,West,270,0.0,3.0,53,-99.99,,,-99.99,,2013-02-06 13:31:00,
2013-02-06 06:42:00,25.0,10.0,-100.00,West,270,0.0,3.0,53,-99.99,,,-99.99,,2013-02-06 13:42:00,
2013-02-06 06:52:00,25.0,11.0,-100.00,WNW,300,1.0,4.0,54,-99.99,,,-99.99,,2013-02-06 13:52:00,
2013-02-06 07:01:00,25.0,11.0,-100.00,NNE,30,3.0,6.0,54,-99.99,,,-99.99,,2013-02-06 14:01:00,
2013-02-06 07:11:00,25.0,11.0,-100.00,NNE,30,3.0,6.0,54,-99.99,,,-99.99,,2013-02-06 14:11:00,
2013-02-06 07:21:00,26.0,11.0,-100.00,North,-999,-999.0,-999.0,53,-99.99,,,-99.99,,2013-02-06 14:21:00,
2013-02-06 07:31:00,26.0,11.0,-100.00,North,-999,-999.0,-999.0,53,-99.99,,,-99.99,,2013-02-06 14:31:00,
2013-02-06 07:41:00,26.0,11.0,-100.00,North,-999,-999.0,-999.0,53,-99.99,,,-99.99,,2013-02-06 14:41:00,
2013-02-06 07:52:00,26.0,11.0,-100.00,NNW,330,2.0,4.0,53,-99.99,,,-99.99,,2013-02-06 14:52:00,
2013-02-06 08:01:00,27.0,12.0,-100.00,WNW,295,1.0,2.0,52,-99.99,,,-99.99,,2013-02-06 15:01:00,
2013-02-06 08:11:00,27.0,12.0,-100.00,WNW,295,1.0,2.0,52,-99.99,,,-99.99,,2013-02-06 15:11:00,
2013-02-06 08:21:00,33.0,15.0,-100.00,SW,235,0.0,2.0,47,-99.99,,,-99.99,,2013-02-06 15:21:00,
2013-02-06 08:31:00,33.0,15.0,-100.00,SW,235,0.0,2.0,47,-99.99,,,-99.99,,2013-02-06 15:31:00,
2013-02-06 08:52:00,37.0,16.0,-100.00,WSW,240,0.0,0.0,42,-99.99,,,-99.99,,2013-02-06 15:52:00,
2013-02-06 09:01:00,39.0,16.0,-100.00,West,280,0.0,1.0,39,-99.99,,,-99.99,,2013-02-06 16:01:00,
2013-02-06 09:21:00,41.0,16.0,-100.00,NW,315,0.0,0.0,36,-99.99,,,-99.99,,2013-02-06 16:21:00,
2013-02-06 09:32:00,41.0,16.0,-100.00,NW,315,0.0,0.0,36,-99.99,,,-99.99,,2013-02-06 16:32:00,
2013-02-06 09:52:00,35.0,13.0,-100.00,North,355,0.0,0.0,40,-99.99,,,-99.99,,2013-02-06 16:52:00,
2013-02-06 10:01:00,42.0,17.0,-100.00,West,280,0.0,1.0,37,-99.99,,,-99.99,,2013-02-06 17:01:00,
2013-02-06 10:21:00,43.0,17.0,-100.00,SSW,195,1.0,3.0,35,-99.99,,,-99.99,,2013-02-06 17:21:00,
2013-02-06 10:32:00,43.0,17.0,-100.00,SSW,195,1.0,3.0,35,-99.99,,,-99.99,,2013-02-06 17:32:00,
2013-02-06 10:52:00,44.0,17.0,-100.00,South,185,0.0,3.0,33,-99.99,,,-99.99,,2013-02-06 17:52:00,
2013-02-06 11:01:00,41.0,15.0,-100.00,SSW,200,3.0,5.0,35,-99.99,,,-99.99,,2013-02-06 18:01:00,
2013-02-06 11:22:00,42.0,16.0,-100.00,East,80,1.0,2.0,35,-99.99,,,-99.99,,2013-02-06 18:22:00,
2013-02-06 11:32:00,42.0,16.0,-100.00,East,80,1.0,2.0,35,-99.99,,,-99.99,,2013-02-06 18:32:00,
2013-02-06 11:52:00,43.0,16.0,-100.00,North,0,1.0,2.0,34,-99.99,,,-99.99,,2013-02-06 18:52:00,
2013-02-06 12:01:00,42.0,16.0,-100.00,NW,305,0.0,2.0,35,-99.99,,,-99.99,,2013-02-06 19:01:00,
2013-02-06 12:11:00,42.0,16.0,-100.00,NW,305,0.0,2.0,35,-99.99,,,-99.99,,2013-02-06 19:11:00,
2013-02-06 12:21:00,41.0,16.0,-100.00,NW,325,0.0,2.0,36,-99.99,,,-99.99,,2013-02-06 19:21:00,
2013-02-06 12:31:00,41.0,16.0,-100.00,NW,325,0.0,2.0,36,-99.99,,,-99.99,,2013-02-06 19:31:00,
2013-02-06 12:41:00,41.0,16.0,-100.00,NW,325,0.0,2.0,36,-99.99,,,-99.99,,2013-02-06 19:41:00,
2013-02-06 12:52:00,41.0,16.0,-100.00,North,0,2.0,5.0,36,-99.99,,,-99.99,,2013-02-06 19:52:00,
2013-02-06 13:01:00,40.0,16.0,-100.00,North,5,1.0,4.0,37,-99.99,,,-99.99,,2013-02-06 20:01:00,
2013-02-06 13:11:00,40.0,16.0,-100.00,North,5,1.0,4.0,37,-99.99,,,-99.99,,2013-02-06 20:11:00,
2013-02-06 13:21:00,39.0,16.0,-100.00,SW,225,1.0,3.0,39,-99.99,,,-99.99,,2013-02-06 20:21:00,
2013-02-06 13:31:00,39.0,16.0,-100.00,SW,225,1.0,3.0,39,-99.99,,,-99.99,,2013-02-06 20:31:00,
2013-02-06 13:41:00,39.0,16.0,-100.00,SW,225,1.0,3.0,39,-99.99,,,-99.99,,2013-02-06 20:41:00,
2013-02-06 13:52:00,36.0,17.0,-100.00,NW,315,2.0,4.0,45,-99.99,,,-99.99,,2013-02-06 20:52:00,
2013-02-06 14:01:00,34.0,20.0,-100.00,WSW,255,0.0,3.0,56,-99.99,,,-99.99,,2013-02-06 21:01:00,
2013-02-06 14:11:00,34.0,20.0,-100.00,WSW,255,0.0,3.0,56,-99.99,,,-99.99,,2013-02-06 21:11:00,
2013-02-06 14:21:00,34.0,22.0,-100.00,NNW,340,0.0,0.0,61,-99.99,,,-99.99,,2013-02-06 21:21:00,
2013-02-06 14:32:00,34.0,22.0,-100.00,NNW,340,0.0,0.0,61,-99.99,,,-99.99,,2013-02-06 21:32:00,
2013-02-06 14:41:00,34.0,22.0,-100.00,NNW,340,0.0,0.0,61,-99.99,,,-99.99,,2013-02-06 21:41:00,
2013-02-06 14:52:00,34.0,23.0,-100.00,SSW,205,0.0,1.0,64,-99.99,,,-99.99,,2013-02-06 21:52:00,
2013-02-06 15:01:00,34.0,24.0,-100.00,NNW,330,0.0,1.0,67,-99.99,,,-99.99,,2013-02-06 22:01:00,
2013-02-06 15:11:00,34.0,24.0,-100.00,NNW,330,0.0,1.0,67,-99.99,,,-99.99,,2013-02-06 22:11:00,
2013-02-06 15:21:00,34.0,24.0,-100.00,North,5,0.0,1.0,68,-99.99,,,-99.99,,2013-02-06 22:21:00,
2013-02-06 15:31:00,34.0,24.0,-100.00,North,5,0.0,1.0,68,-99.99,,,-99.99,,2013-02-06 22:31:00,
2013-02-06 15:41:00,34.0,24.0,-100.00,North,5,0.0,1.0,68,-99.99,,,-99.99,,2013-02-06 22:41:00,
2013-02-06 15:52:00,33.0,25.0,-100.00,NNW,345,0.0,2.0,71,-99.99,,,-99.99,,2013-02-06 22:52:00,
2013-02-06 16:01:00,32.0,25.0,-100.00,North,5,0.0,1.0,74,-99.99,,,-99.99,,2013-02-06 23:01:00,
2013-02-06 16:11:00,32.0,25.0,-100.00,North,5,0.0,1.0,74,-99.99,,,-99.99,,2013-02-06 23:11:00,
2013-02-06 16:21:00,31.0,25.0,-100.00,North,350,0.0,2.0,77,-99.99,,,-99.99,,2013-02-06 23:21:00,
2013-02-06 16:31:00,31.0,25.0,-100.00,North,350,0.0,2.0,77,-99.99,,,-99.99,,2013-02-06 23:31:00,
2013-02-06 16:41:00,31.0,25.0,-100.00,North,350,0.0,2.0,77,-99.99,,,-99.99,,2013-02-06 23:41:00,
2013-02-06 16:52:00,31.0,25.0,-100.00,NW,325,0.0,1.0,80,-99.99,,,-99.99,,2013-02-06 23:52:00,
2013-02-06 17:01:00,30.0,25.0,-100.00,SW,235,0.0,1.0,82,-99.99,,,-99.99,,2013-02-07 00:01:00,
2013-02-06 17:11:00,30.0,25.0,-100.00,SW,235,0.0,1.0,82,-99.99,,,-99.99,,2013-02-07 00:11:00,
2013-02-06 17:21:00,30.0,25.0,-100.00,SSE,155,0.0,1.0,82,-99.99,,,-99.99,,2013-02-07 00:21:00,
2013-02-06 17:31:00,30.0,25.0,-100.00,SSE,155,0.0,1.0,82,-99.99,,,-99.99,,2013-02-07 00:31:00,
2013-02-06 17:41:00,30.0,25.0,-100.00,SSE,155,0.0,1.0,82,-99.99,,,-99.99,,2013-02-07 00:41:00,
2013-02-06 17:52:00,29.0,25.0,-100.00,NNE,25,0.0,1.0,84,-99.99,,,-99.99,,2013-02-07 00:52:00,
2013-02-06 18:01:00,29.0,25.0,-100.00,NE,35,0.0,1.0,86,-99.99,,,-99.99,,2013-02-07 01:01:00,
2013-02-06 18:11:00,29.0,25.0,-100.00,NE,35,0.0,1.0,86,-99.99,,,-99.99,,2013-02-07 01:11:00,
2013-02-06 18:21:00,28.0,25.0,-100.00,West,280,0.0,1.0,88,-99.99,,,-99.99,,2013-02-07 01:21:00,
2013-02-06 18:31:00,28.0,25.0,-100.00,West,280,0.0,1.0,88,-99.99,,,-99.99,,2013-02-07 01:31:00,
2013-02-06 18:41:00,28.0,25.0,-100.00,West,280,0.0,1.0,88,-99.99,,,-99.99,,2013-02-07 01:41:00,
2013-02-06 18:52:00,28.0,25.0,-100.00,NNE,25,0.0,0.0,90,-99.99,,,-99.99,,2013-02-07 01:52:00,
2013-02-06 19:01:00,28.0,25.0,-100.00,NW,315,0.0,1.0,90,-99.99,,,-99.99,,2013-02-07 02:01:00,
2013-02-06 19:11:00,28.0,25.0,-100.00,NW,315,0.0,1.0,90,-99.99,,,-99.99,,2013-02-07 02:11:00,
2013-02-06 19:21:00,27.0,25.0,-100.00,NNW,330,0.0,2.0,91,-99.99,,,-99.99,,2013-02-07 02:21:00,
2013-02-06 19:31:00,27.0,25.0,-100.00,NNW,330,0.0,2.0,91,-99.99,,,-99.99,,2013-02-07 02:31:00,
2013-02-06 19:41:00,27.0,25.0,-100.00,NNW,330,0.0,2.0,91,-99.99,,,-99.99,,2013-02-07 02:41:00,
2013-02-06 20:02:00,27.0,25.0,-100.00,NW,315,0.0,0.0,91,-99.99,,,-99.99,,2013-02-07 03:02:00,
2013-02-06 20:11:00,27.0,25.0,-100.00,NW,315,0.0,0.0,91,-99.99,,,-99.99,,2013-02-07 03:11:00,
2013-02-06 20:21:00,27.0,25.0,-100.00,WNW,295,0.0,2.0,92,-99.99,,,-99.99,,2013-02-07 03:21:00,
2013-02-06 20:31:00,27.0,25.0,-100.00,WNW,295,0.0,2.0,92,-99.99,,,-99.99,,2013-02-07 03:31:00,
2013-02-06 20:41:00,27.0,25.0,-100.00,WNW,295,0.0,2.0,92,-99.99,,,-99.99,,2013-02-07 03:41:00,
2013-02-06 20:52:00,26.0,24.0,-100.00,WSW,255,0.0,0.0,92,-99.99,,,-99.99,,2013-02-07 03:52:00,
2013-02-06 21:01:00,26.0,24.0,-100.00,WSW,255,0.0,0.0,92,-99.99,,,-99.99,,2013-02-07 04:01:00,
2013-02-06 21:11:00,26.0,24.0,-100.00,WSW,255,0.0,0.0,92,-99.99,,,-99.99,,2013-02-07 04:11:00,
2013-02-06 21:22:00,26.0,24.0,-100.00,NW,320,0.0,1.0,91,-99.99,,,-99.99,,2013-02-07 04:22:00,
2013-02-06 21:31:00,26.0,24.0,-100.00,NW,320,0.0,1.0,91,-99.99,,,-99.99,,2013-02-07 04:31:00,
2013-02-06 21:41:00,26.0,24.0,-100.00,NW,320,0.0,1.0,91,-99.99,,,-99.99,,2013-02-07 04:41:00,
2013-02-06 21:53:00,26.0,23.0,-100.00,West,270,0.0,0.0,90,-99.99,,,-99.99,,2013-02-07 04:53:00,
2013-02-06 22:01:00,26.0,23.0,-100.00,SW,215,0.0,0.0,90,-99.99,,,-99.99,,2013-02-07 05:01:00,
2013-02-06 22:11:00,26.0,23.0,-100.00,SW,215,0.0,0.0,90,-99.99,,,-99.99,,2013-02-07 05:11:00,
2013-02-06 22:21:00,26.0,23.0,-100.00,SE,140,0.0,0.0,90,-99.99,,,-99.99,,2013-02-07 05:21:00,
2013-02-06 22:32:00,26.0,23.0,-100.00,SE,140,0.0,0.0,90,-99.99,,,-99.99,,2013-02-07 05:32:00,
2013-02-06 22:42:00,26.0,23.0,-100.00,SE,140,0.0,0.0,90,-99.99,,,-99.99,,2013-02-07 05:42:00,
2013-02-06 22:43:00,25.0,22.0,-100.00,ESE,110,2.0,3.0,87,-99.99,,,-99.99,,2013-02-07 05:43:00,
2013-02-06 22:52:00,26.0,23.0,-100.00,SE,125,0.0,0.0,90,-99.99,,,-99.99,,2013-02-07 05:52:00,
2013-02-06 23:02:00,25.0,23.0,-100.00,NE,40,7.0,10.0,91,-99.99,,,-99.99,,2013-02-07 06:02:00,
2013-02-06 23:11:00,25.0,23.0,-100.00,NE,40,7.0,10.0,91,-99.99,,,-99.99,,2013-02-07 06:11:00,
2013-02-06 23:22:00,25.0,23.0,-100.00,NE,40,7.0,10.0,91,-99.99,,,-99.99,,2013-02-07 06:22:00,
2013-02-06 23:31:00,25.0,22.0,-100.00,ESE,110,2.0,3.0,87,-99.99,,,-99.99,,2013-02-07 06:31:00,
2013-02-06 23:52:00,24.0,21.0,-100.00,ENE,70,2.0,4.0,88,-99.99,,,-99.99,,2013-02-07 06:52:00,